Time;durP1;ratioP1;P1;durP2;ratioP2;P2;SDS_P1;SDS_P2;PMS_P1;PMS_P2;Temp;Humidity;BMP_temperature;BMP_pressure;BME280_temperature;BME280_humidity;BME280_pressure;Samples;Min_cycle;Max_cycle;Signal;HPM_P1;HPM_P2
2022/05/03 00:00:07;;;;;;;1.02;0.75;;;8.30;99.90;;;;;;5033326;28;20105;-75
2022/05/03 00:02:54;;;;;;;0.93;0.60;;;8.30;99.90;;;;;;5032638;28;20033;-75
2022/05/03 00:05:58;;;;;;;1.83;0.90;;;8.30;99.90;;;;;;5033443;28;20017;-76
2022/05/03 00:09:03;;;;;;;0.98;0.80;;;8.20;99.90;;;;;;5031171;28;20046;-76
2022/05/03 00:11:31;;;;;;;1.20;0.88;;;8.20;99.90;;;;;;5032390;28;20513;-76
2022/05/03 00:13:59;;;;;;;1.38;0.60;;;8.10;99.90;;;;;;5031734;28;20054;-76
2022/05/03 00:16:26;;;;;;;1.45;0.90;;;7.90;99.90;;;;;;5032213;28;20036;-76
2022/05/03 00:18:53;;;;;;;1.42;0.80;;;7.70;99.90;;;;;;5032524;28;20066;-76
2022/05/03 00:21:20;;;;;;;3.08;1.05;;;7.60;99.90;;;;;;5032837;28;20433;-77
2022/05/03 00:23:46;;;;;;;2.55;1.13;;;7.50;99.90;;;;;;5031427;28;20038;-76
2022/05/03 00:26:14;;;;;;;2.50;1.13;;;7.50;99.90;;;;;;5032716;28;20018;-76
2022/05/03 00:28:42;;;;;;;2.15;0.93;;;7.40;99.90;;;;;;5032213;28;20025;-76
2022/05/03 00:31:09;;;;;;;0.82;0.52;;;7.40;99.90;;;;;;5032117;28;20026;-77
2022/05/03 00:33:36;;;;;;;1.10;0.75;;;7.50;99.90;;;;;;5031879;28;20046;-76
2022/05/03 00:36:02;;;;;;;0.65;0.60;;;7.50;99.90;;;;;;5032111;28;20044;-76
2022/05/03 00:38:33;;;;;;;9.23;0.90;;;7.50;99.90;;;;;;5030491;28;20029;-76
2022/05/03 00:41:02;;;;;;;3.03;0.82;;;7.50;99.90;;;;;;5032645;28;20052;-76
2022/05/03 00:43:36;;;;;;;2.08;0.85;;;7.50;99.90;;;;;;5047226;28;20033;-76
2022/05/03 00:46:07;;;;;;;1.45;0.50;;;7.50;99.90;;;;;;5032245;28;20080;-75
2022/05/03 00:48:57;;;;;;;0.68;0.55;;;7.40;99.90;;;;;;5032656;28;20033;-75
2022/05/03 00:51:45;;;;;;;1.92;0.82;;;7.40;99.90;;;;;;5034561;28;20025;-74
2022/05/03 00:54:32;;;;;;;0.73;0.63;;;7.40;99.90;;;;;;5036620;28;20158;-75
2022/05/03 00:57:13;;;;;;;2.10;0.82;;;7.30;99.90;;;;;;5036592;28;20025;-75
2022/05/03 01:00:06;;;;;;;1.35;1.10;;;7.20;99.90;;;;;;5035987;28;20018;-76
2022/05/03 01:02:59;;;;;;;3.13;0.88;;;7.20;99.90;;;;;;5036069;28;20037;-75
2022/05/03 01:05:40;;;;;;;2.30;1.10;;;7.10;99.90;;;;;;5035119;28;20025;-75
2022/05/03 01:08:07;;;;;;;1.75;0.85;;;7.00;99.90;;;;;;5035218;28;20026;-75
2022/05/03 01:10:38;;;;;;;2.13;1.17;;;6.90;99.90;;;;;;5035504;28;20102;-74
2022/05/03 01:13:23;;;;;;;2.60;1.00;;;6.80;99.90;;;;;;5042488;28;20114;-75
2022/05/03 01:16:00;;;;;;;2.63;1.27;;;6.80;99.90;;;;;;5036091;28;20367;-76
2022/05/03 01:18:30;;;;;;;3.28;1.23;;;6.80;99.90;;;;;;5033811;28;20398;-76
2022/05/03 01:21:14;;;;;;;2.55;1.27;;;6.80;99.90;;;;;;5034232;28;20026;-76
2022/05/03 01:23:49;;;;;;;2.88;1.63;;;6.80;99.90;;;;;;5035722;28;20065;-75
2022/05/03 01:26:44;;;;;;;1.35;1.00;;;6.80;99.90;;;;;;5035321;28;20050;-74
2022/05/03 01:29:28;;;;;;;2.20;1.42;;;6.80;99.90;;;;;;5036004;28;20075;-76
2022/05/03 01:32:02;;;;;;;3.30;1.92;;;6.90;99.90;;;;;;5035678;28;20021;-76
2022/05/03 01:34:35;;;;;;;2.95;1.60;;;7.00;99.90;;;;;;5035920;28;20045;-76
2022/05/03 01:37:30;;;;;;;2.83;1.45;;;7.00;99.90;;;;;;5033835;28;20898;-76
2022/05/03 01:40:23;;;;;;;3.47;1.83;;;7.00;99.90;;;;;;5033933;28;21541;-77
2022/05/03 01:43:06;;;;;;;1.92;1.50;;;7.00;99.90;;;;;;5034398;28;20523;-75
2022/05/03 01:46:06;;;;;;;4.88;1.55;;;7.00;99.90;;;;;;5034471;28;20026;-76
2022/05/03 01:51:44;;;;;;;2.05;1.42;;;7.00;99.90;;;;;;5035404;28;20086;-76
2022/05/03 01:54:38;;;;;;;2.10;1.33;;;7.00;99.90;;;;;;5034797;28;20034;-75
2022/05/03 01:57:15;;;;;;;3.97;1.50;;;6.80;99.90;;;;;;5034834;28;20030;-76
2022/05/03 01:59:59;;;;;;;2.22;1.23;;;6.80;99.90;;;;;;5035031;28;20029;-76
2022/05/03 02:02:58;;;;;;;4.13;2.40;;;6.70;99.90;;;;;;5034995;28;20041;-76
2022/05/03 02:05:53;;;;;;;3.00;1.50;;;6.60;99.90;;;;;;5034379;28;20265;-76
2022/05/03 02:08:21;;;;;;;3.33;1.40;;;6.50;99.90;;;;;;5035327;28;20018;-76
2022/05/03 02:11:07;;;;;;;5.40;1.52;;;6.50;99.90;;;;;;5031668;28;20132;-76
2022/05/03 02:15:00;;;;;;;3.90;1.75;;;6.50;99.90;;;;;;5033791;28;20045;-75
2022/05/03 02:17:01;;;;;;;3.55;2.33;;;6.50;99.90;;;;;;5032092;28;20157;-76
2022/05/03 02:19:56;;;;;;;4.38;2.47;;;6.40;99.90;;;;;;5033804;28;20026;-74
2022/05/03 02:22:30;;;;;;;3.88;2.38;;;6.40;99.90;;;;;;5034646;28;20026;-77
2022/05/03 02:25:36;;;;;;;6.15;2.80;;;6.40;99.90;;;;;;5040621;28;20026;-75
2022/05/03 02:28:28;;;;;;;4.78;2.22;;;6.50;99.90;;;;;;4973448;28;20101;-76
2022/05/03 02:30:55;;;;;;;4.53;2.55;;;6.50;99.90;;;;;;5041280;28;20021;-76
2022/05/03 02:33:25;;;;;;;6.35;3.22;;;6.60;99.90;;;;;;5033359;28;21411;-76
2022/05/03 02:35:55;;;;;;;8.10;3.67;;;6.60;99.90;;;;;;5034520;28;20036;-76
2022/05/03 02:38:37;;;;;;;6.55;3.90;;;6.60;99.90;;;;;;5034977;28;20039;-75
2022/05/03 02:41:07;;;;;;;6.90;3.13;;;6.60;99.90;;;;;;5033560;28;20022;-75
2022/05/03 02:43:38;;;;;;;7.90;3.70;;;6.50;99.90;;;;;;5034334;28;20076;-76
2022/05/03 02:46:22;;;;;;;13.80;3.42;;;6.40;99.90;;;;;;5032884;28;20037;-75
2022/05/03 02:49:02;;;;;;;6.85;3.83;;;6.40;99.90;;;;;;5033937;28;20056;-75
2022/05/03 02:51:34;;;;;;;6.20;3.63;;;6.50;99.90;;;;;;5033100;28;20030;-75
2022/05/03 02:54:06;;;;;;;8.75;3.42;;;6.30;99.90;;;;;;5033539;28;20026;-76
2022/05/03 02:56:59;;;;;;;6.10;3.30;;;6.40;99.90;;;;;;5048908;28;20033;-75
2022/05/03 03:02:35;;;;;;;8.10;3.85;;;6.50;99.90;;;;;;5033480;28;20080;-75
2022/05/03 03:05:09;;;;;;;6.32;3.53;;;6.40;99.90;;;;;;5049058;28;20038;-74
2022/05/03 03:07:46;;;;;;;6.22;3.38;;;6.30;99.90;;;;;;5033800;28;20030;-75
2022/05/03 03:10:19;;;;;;;9.25;4.57;;;6.20;99.90;;;;;;5033544;28;20041;-74
2022/05/03 03:13:09;;;;;;;7.97;3.50;;;6.10;99.90;;;;;;5033195;28;20056;-74
2022/05/03 03:15:40;;;;;;;8.77;3.90;;;6.10;99.90;;;;;;5033709;28;20053;-74
2022/05/03 03:18:11;;;;;;;8.50;3.58;;;6.20;99.90;;;;;;5033590;28;20072;-74
2022/05/03 03:20:44;;;;;;;8.07;3.70;;;6.10;99.90;;;;;;5033800;28;20056;-75
2022/05/03 03:23:18;;;;;;;7.10;3.20;;;6.10;99.90;;;;;;5032808;28;20045;-75
2022/05/03 03:25:47;;;;;;;6.95;4.10;;;6.10;99.90;;;;;;5033256;28;20061;-74
2022/05/03 03:28:17;;;;;;;7.00;3.90;;;6.10;99.90;;;;;;5033572;28;20037;-74
2022/05/03 03:30:44;;;;;;;8.63;3.83;;;6.10;99.90;;;;;;5033407;28;20013;-74
2022/05/03 03:33:12;;;;;;;6.60;3.40;;;6.10;99.90;;;;;;5033644;28;20018;-76
2022/05/03 03:35:40;;;;;;;6.35;4.28;;;6.10;99.90;;;;;;5032269;28;20113;-75
2022/05/03 03:38:07;;;;;;;8.68;3.47;;;6.10;99.90;;;;;;5033337;28;20035;-75
2022/05/03 03:40:33;;;;;;;6.07;3.53;;;6.10;99.90;;;;;;5033410;28;20464;-75
2022/05/03 03:42:59;;;;;;;6.03;3.63;;;6.00;99.90;;;;;;5031597;28;20057;-77
2022/05/03 03:45:25;;;;;;;6.20;3.38;;;6.10;99.90;;;;;;5032810;28;20040;-75
2022/05/03 03:47:51;;;;;;;4.63;2.60;;;6.10;99.90;;;;;;5033204;28;20078;-75
2022/05/03 03:50:17;;;;;;;10.65;3.30;;;6.00;99.90;;;;;;5032645;28;20056;-75
2022/05/03 03:52:44;;;;;;;8.45;3.83;;;6.00;99.90;;;;;;5032599;28;20076;-76
2022/05/03 03:55:12;;;;;;;7.38;3.75;;;6.00;99.90;;;;;;5033132;28;20115;-75
2022/05/03 03:57:38;;;;;;;5.78;3.55;;;6.10;99.90;;;;;;5038498;28;20052;-77
2022/05/03 04:00:12;;;;;;;7.40;4.25;;;6.10;99.90;;;;;;5027903;28;20026;-75
2022/05/03 04:02:40;;;;;;;4.78;2.75;;;6.10;99.90;;;;;;5032062;28;20069;-75
2022/05/03 04:05:17;;;;;;;13.70;3.25;;;6.20;99.90;;;;;;5038913;28;20022;-76
2022/05/03 04:07:46;;;;;;;7.30;3.58;;;6.20;99.90;;;;;;5032603;28;20425;-77
2022/05/03 04:10:12;;;;;;;7.55;3.90;;;6.20;99.90;;;;;;5032433;28;20026;-75
2022/05/03 04:12:38;;;;;;;4.07;3.15;;;6.20;99.90;;;;;;5029613;28;20042;-76
2022/05/03 04:15:05;;;;;;;9.40;3.47;;;6.10;99.90;;;;;;5032234;28;20048;-74
2022/05/03 04:17:31;;;;;;;5.55;3.08;;;6.20;99.90;;;;;;5030901;28;20022;-74
2022/05/03 04:20:00;;;;;;;8.75;2.88;;;6.20;99.90;;;;;;5039026;28;20061;-75
2022/05/03 04:22:29;;;;;;;12.43;3.70;;;6.20;99.90;;;;;;5030548;28;20462;-76
2022/05/03 04:24:55;;;;;;;6.78;4.15;;;6.20;99.90;;;;;;5031271;28;20022;-75
2022/05/03 04:27:22;;;;;;;7.43;3.30;;;6.20;99.90;;;;;;5032214;28;20034;-76
2022/05/03 04:29:48;;;;;;;5.55;3.10;;;6.20;99.90;;;;;;5031256;28;20872;-75
2022/05/03 04:32:14;;;;;;;6.60;3.17;;;6.30;99.90;;;;;;5031054;28;20022;-74
2022/05/03 04:34:40;;;;;;;7.78;3.83;;;6.30;99.90;;;;;;5032085;28;20116;-73
2022/05/03 04:37:07;;;;;;;7.88;3.50;;;6.20;99.90;;;;;;5031382;28;20116;-78
2022/05/03 04:39:33;;;;;;;6.82;2.15;;;6.40;99.90;;;;;;5030503;28;20093;-74
2022/05/03 04:41:58;;;;;;;6.10;3.47;;;6.40;99.90;;;;;;5029836;28;20029;-75
2022/05/03 04:44:24;;;;;;;6.45;3.63;;;6.50;99.90;;;;;;5030620;28;20041;-76
2022/05/03 04:46:49;;;;;;;8.95;3.92;;;6.50;99.90;;;;;;5031496;28;20034;-75
2022/05/03 04:49:15;;;;;;;6.07;3.75;;;6.60;99.90;;;;;;5032334;28;20026;-74
2022/05/03 04:51:41;;;;;;;11.75;3.80;;;6.60;99.90;;;;;;5032577;28;20033;-75
2022/05/03 04:54:06;;;;;;;6.88;3.60;;;6.70;99.90;;;;;;5030355;28;20048;-74
2022/05/03 04:56:32;;;;;;;6.10;3.65;;;6.70;99.90;;;;;;5030789;28;20108;-73
2022/05/03 04:58:58;;;;;;;5.65;3.15;;;6.70;99.90;;;;;;5031173;28;20025;-75
2022/05/03 05:01:24;;;;;;;6.55;2.40;;;6.80;99.90;;;;;;5031997;28;20033;-74
2022/05/03 05:03:50;;;;;;;7.25;3.38;;;6.80;99.90;;;;;;5030469;28;20413;-75
2022/05/03 05:06:16;;;;;;;7.25;3.80;;;6.90;99.90;;;;;;5024561;28;20069;-74
2022/05/03 05:08:45;;;;;;;7.20;2.97;;;6.90;99.90;;;;;;5024316;28;20041;-76
2022/05/03 05:11:11;;;;;;;6.82;3.75;;;7.00;99.90;;;;;;5029283;28;20037;-74
2022/05/03 05:13:38;;;;;;;6.63;3.88;;;7.10;99.90;;;;;;5031451;28;20399;-73
2022/05/03 05:16:05;;;;;;;5.22;3.65;;;7.10;99.90;;;;;;5031760;28;20030;-74
2022/05/03 05:18:31;;;;;;;6.82;4.03;;;7.20;99.90;;;;;;5027372;28;20035;-74
2022/05/03 05:20:57;;;;;;;5.72;3.47;;;7.20;99.90;;;;;;5030650;28;20125;-74
2022/05/03 05:23:24;;;;;;;4.60;3.25;;;7.30;99.90;;;;;;5030782;28;20037;-75
2022/05/03 05:25:51;;;;;;;5.47;3.72;;;7.40;99.90;;;;;;5032095;28;20074;-74
2022/05/03 05:28:18;;;;;;;5.72;3.88;;;7.40;99.90;;;;;;5030572;28;20137;-75
2022/05/03 05:30:44;;;;;;;6.70;4.13;;;7.50;99.90;;;;;;5038309;28;20030;-75
2022/05/03 05:33:10;;;;;;;8.57;3.83;;;7.60;99.90;;;;;;5030883;28;20068;-74
2022/05/03 05:35:36;;;;;;;10.70;5.03;;;7.70;99.90;;;;;;5030993;28;20033;-75
2022/05/03 05:38:03;;;;;;;8.73;4.60;;;7.70;99.90;;;;;;5035321;28;20148;-76
2022/05/03 05:40:29;;;;;;;9.68;4.00;;;7.90;99.90;;;;;;5035860;28;20014;-76
2022/05/03 05:42:55;;;;;;;14.70;3.92;;;8.00;99.90;;;;;;5049706;28;20068;-75
2022/05/03 05:45:21;;;;;;;6.78;4.00;;;8.10;99.90;;;;;;5040487;28;20026;-75
2022/05/03 05:47:46;;;;;;;7.60;4.15;;;8.20;99.90;;;;;;5035448;28;20030;-73
2022/05/03 05:50:12;;;;;;;9.30;4.90;;;8.20;99.90;;;;;;5035797;28;20021;-74
2022/05/03 05:55:23;;;;;;;9.10;4.70;;;8.40;99.90;;;;;;5035676;28;20033;-74
2022/05/03 05:57:49;;;;;;;8.77;5.28;;;8.50;99.90;;;;;;5034303;28;20466;-74
2022/05/03 06:00:16;;;;;;;7.65;4.50;;;8.60;99.90;;;;;;5034629;28;20025;-74
2022/05/03 06:02:41;;;;;;;9.32;4.38;;;8.60;99.90;;;;;;5035219;28;20033;-75
2022/05/03 06:05:07;;;;;;;7.78;4.82;;;8.70;99.90;;;;;;5034983;28;20633;-74
2022/05/03 06:07:33;;;;;;;11.45;4.70;;;8.80;99.90;;;;;;5032182;28;20026;-74
2022/05/03 06:09:58;;;;;;;12.73;5.82;;;8.90;99.90;;;;;;5035113;28;20034;-74
2022/05/03 06:12:25;;;;;;;9.40;5.05;;;9.00;99.90;;;;;;5034770;28;20053;-72
2022/05/03 06:14:51;;;;;;;15.82;6.32;;;9.00;99.90;;;;;;5033142;28;20029;-73
2022/05/03 06:17:17;;;;;;;15.82;5.38;;;9.00;99.90;;;;;;5034670;28;20096;-72
2022/05/03 06:19:44;;;;;;;12.23;5.57;;;9.00;99.90;;;;;;5034544;28;20017;-71
2022/05/03 06:22:09;;;;;;;10.35;5.55;;;8.90;99.90;;;;;;5034884;28;20041;-73
2022/05/03 06:24:35;;;;;;;15.27;6.93;;;8.90;99.90;;;;;;5032907;28;20042;-72
2022/05/03 06:27:00;;;;;;;9.25;5.40;;;9.00;99.90;;;;;;5032093;28;20033;-73
2022/05/03 06:29:26;;;;;;;12.88;6.25;;;9.00;99.90;;;;;;5032706;28;20049;-74
2022/05/03 06:31:52;;;;;;;9.98;6.57;;;9.10;99.90;;;;;;5049460;28;20038;-74
2022/05/03 06:34:18;;;;;;;12.10;6.47;;;9.10;99.90;;;;;;5038620;28;20029;-74
2022/05/03 06:36:45;;;;;;;10.07;6.25;;;9.10;99.90;;;;;;5034494;28;20030;-73
2022/05/03 06:39:12;;;;;;;14.13;6.10;;;9.10;99.90;;;;;;5034311;28;20041;-73
2022/05/03 06:41:37;;;;;;;21.45;6.93;;;9.20;99.90;;;;;;5031901;28;20037;-74
2022/05/03 06:44:03;;;;;;;21.60;8.23;;;9.20;99.90;;;;;;5033202;28;20072;-73
2022/05/03 06:46:29;;;;;;;24.27;8.07;;;9.30;99.90;;;;;;5033826;28;20048;-74
2022/05/03 06:48:56;;;;;;;20.05;8.68;;;9.40;99.90;;;;;;5028210;28;20053;-72
2022/05/03 06:51:22;;;;;;;18.23;8.18;;;9.50;99.90;;;;;;5032143;28;20026;-73
2022/05/03 06:53:48;;;;;;;22.90;9.23;;;9.50;99.90;;;;;;5032309;28;20042;-73
2022/05/03 06:56:14;;;;;;;16.00;8.05;;;9.50;99.90;;;;;;5031305;28;20085;-73
2022/05/03 06:58:41;;;;;;;26.35;9.18;;;9.60;99.90;;;;;;5031830;28;20026;-74
2022/05/03 07:01:13;;;;;;;20.40;10.57;;;9.70;99.90;;;;;;5031520;28;20034;-73
2022/05/03 07:03:41;;;;;;;21.20;9.15;;;9.80;99.90;;;;;;5033731;28;20087;-73
2022/05/03 07:06:07;;;;;;;32.15;11.45;;;9.90;99.90;;;;;;5031998;28;20033;-74
2022/05/03 07:08:34;;;;;;;21.27;10.63;;;10.00;99.90;;;;;;5031891;28;20041;-72
2022/05/03 07:11:00;;;;;;;25.83;11.10;;;10.20;99.90;;;;;;5031524;28;20026;-71
2022/05/03 07:13:27;;;;;;;22.75;9.93;;;10.30;99.90;;;;;;5031740;28;20068;-71
2022/05/03 07:15:56;;;;;;;19.77;8.88;;;10.40;99.90;;;;;;5032673;28;20120;-74
2022/05/03 07:23:53;;;;;;;37.95;9.43;;;10.50;99.90;;;;;;5033895;28;20044;-73
2022/05/03 07:26:20;;;;;;;24.85;10.25;;;10.50;99.90;;;;;;5033787;28;20025;-74
2022/05/03 07:28:49;;;;;;;22.88;9.57;;;10.60;99.90;;;;;;5033669;28;20030;-72
2022/05/03 07:31:18;;;;;;;36.60;10.65;;;10.60;99.90;;;;;;5033404;28;20018;-73
2022/05/03 07:33:45;;;;;;;30.65;9.40;;;10.60;99.90;;;;;;5033609;28;20025;-73
2022/05/03 07:36:20;;;;;;;17.27;9.13;;;10.70;99.90;;;;;;5033435;28;20025;-74
2022/05/03 07:38:50;;;;;;;20.17;8.75;;;10.70;99.90;;;;;;5031995;28;20034;-71
2022/05/03 07:41:16;;;;;;;22.13;8.13;;;10.60;99.90;;;;;;5048370;28;20022;-71
2022/05/03 07:43:43;;;;;;;24.02;9.18;;;10.70;99.90;;;;;;5031314;28;20136;-71
2022/05/03 07:46:08;;;;;;;16.17;7.75;;;10.70;99.90;;;;;;5032255;28;20067;-74
2022/05/03 07:48:34;;;;;;;13.70;7.38;;;10.60;99.90;;;;;;5032722;28;20026;-72
2022/05/03 07:50:59;;;;;;;17.85;8.43;;;10.50;99.90;;;;;;5031406;28;20033;-74
2022/05/03 07:53:25;;;;;;;15.43;7.22;;;10.50;99.90;;;;;;5040145;28;20053;-73
2022/05/03 07:55:51;;;;;;;16.52;7.53;;;10.40;99.90;;;;;;5031141;28;20126;-76
2022/05/03 07:58:22;;;;;;;24.08;10.20;;;10.40;99.90;;;;;;5032695;28;20513;-74
2022/05/03 08:00:48;;;;;;;17.70;8.93;;;10.40;99.90;;;;;;5032021;28;20043;-74
2022/05/03 08:03:14;;;;;;;15.52;8.27;;;10.40;99.90;;;;;;5030493;28;20148;-73
2022/05/03 08:05:40;;;;;;;11.55;6.38;;;10.40;99.90;;;;;;5030708;28;20026;-73
2022/05/03 08:08:06;;;;;;;14.13;7.43;;;10.40;99.90;;;;;;5031348;28;20025;-75
2022/05/03 08:10:32;;;;;;;19.05;6.68;;;10.40;99.90;;;;;;5026962;28;20041;-76
2022/05/03 08:12:59;;;;;;;14.27;6.78;;;10.40;99.90;;;;;;5031603;28;20061;-73
2022/05/03 08:15:24;;;;;;;17.90;7.30;;;10.40;99.90;;;;;;5032384;28;20464;-76
2022/05/03 08:17:50;;;;;;;12.52;6.03;;;10.40;99.90;;;;;;5039878;28;20061;-74
2022/05/03 08:20:16;;;;;;;13.45;6.65;;;10.50;99.90;;;;;;5030639;28;20030;-73
2022/05/03 08:22:42;;;;;;;13.10;6.50;;;10.50;99.90;;;;;;5032479;28;20045;-74
2022/05/03 08:25:09;;;;;;;17.38;6.43;;;10.60;99.90;;;;;;5031586;28;20148;-74
2022/05/03 08:27:38;;;;;;;11.68;5.78;;;10.80;99.90;;;;;;5028033;28;20042;-74
2022/05/03 08:30:08;;;;;;;15.85;5.22;;;10.80;99.90;;;;;;5028874;28;20026;-75
2022/05/03 08:32:34;;;;;;;10.93;4.90;;;10.90;99.90;;;;;;5029956;28;20029;-74
2022/05/03 08:35:00;;;;;;;9.00;4.53;;;11.00;99.90;;;;;;5031587;28;20021;-75
2022/05/03 08:42:57;;;;;;;10.75;4.40;;;11.20;99.90;;;;;;5031797;28;20528;-74
2022/05/03 08:45:24;;;;;;;7.72;2.83;;;11.20;99.90;;;;;;5031840;28;20041;-75
2022/05/03 08:47:50;;;;;;;12.95;4.40;;;11.30;99.90;;;;;;5032459;28;20437;-74
2022/05/03 08:50:22;;;;;;;12.40;3.50;;;11.30;99.90;;;;;;5032016;28;20026;-73
2022/05/03 08:52:52;;;;;;;6.47;3.47;;;11.30;99.90;;;;;;5031040;28;20165;-73
2022/05/03 08:55:19;;;;;;;6.57;3.20;;;11.40;99.90;;;;;;5032235;28;20026;-74
2022/05/03 08:57:45;;;;;;;17.40;3.92;;;11.40;99.90;;;;;;5031859;28;20044;-74
2022/05/03 09:00:13;;;;;;;12.80;3.63;;;11.40;99.90;;;;;;5032271;28;20498;-73
2022/05/03 09:02:49;;;;;;;15.32;3.70;;;11.40;99.90;;;;;;5031503;28;20042;-74
2022/05/03 09:05:15;;;;;;;16.33;3.22;;;11.30;99.90;;;;;;5031739;28;20022;-74
2022/05/03 09:07:59;;;;;;;10.07;4.60;;;11.40;99.90;;;;;;5030637;28;20227;-74
2022/05/03 09:10:33;;;;;;;16.90;3.15;;;11.40;99.90;;;;;;5029210;28;20372;-75
2022/05/03 09:13:18;;;;;;;9.05;2.72;;;11.50;99.90;;;;;;5035188;28;20751;-74
2022/05/03 09:15:50;;;;;;;11.07;2.70;;;11.60;99.90;;;;;;5036122;28;20029;-74
2022/05/03 09:18:31;;;;;;;10.52;2.65;;;11.60;99.90;;;;;;5033473;28;21048;-73
2022/05/03 09:23:48;;;;;;;13.85;3.30;;;11.60;99.90;;;;;;5032819;28;20052;-75
2022/05/03 09:26:19;;;;;;;6.47;2.55;;;11.60;99.90;;;;;;5025850;28;20041;-75
2022/05/03 09:28:53;;;;;;;4.35;1.85;;;11.60;99.90;;;;;;5035061;28;20040;-74
2022/05/03 09:31:43;;;;;;;11.55;2.95;;;11.60;99.90;;;;;;5036215;28;20046;-73
2022/05/03 09:34:26;;;;;;;16.40;2.40;;;11.70;99.90;;;;;;5034784;28;20094;-74
2022/05/03 09:36:58;;;;;;;3.27;2.17;;;11.70;99.90;;;;;;5033451;28;20766;-76
2022/05/03 09:39:29;;;;;;;7.40;2.97;;;11.70;99.90;;;;;;5035044;28;20024;-75
2022/05/03 09:42:13;;;;;;;9.00;3.20;;;11.70;99.90;;;;;;5030113;28;20026;-76
2022/05/03 09:44:58;;;;;;;11.40;3.80;;;11.80;99.90;;;;;;5033534;28;20034;-75
2022/05/03 09:47:30;;;;;;;4.25;2.53;;;11.90;99.90;;;;;;5033295;28;20163;-73
2022/05/03 09:49:56;;;;;;;4.57;2.35;;;11.80;99.90;;;;;;5032168;28;20021;-74
2022/05/03 09:52:30;;;;;;;5.15;2.20;;;11.80;99.90;;;;;;5033795;28;20026;-74
2022/05/03 09:54:59;;;;;;;;;;;11.80;99.90;;;;;;5033609;28;20048;-75
2022/05/03 09:57:26;;;;;;;10.40;2.70;;;11.80;99.90;;;;;;5033192;28;20342;-74
2022/05/03 09:59:54;;;;;;;14.65;1.80;;;11.90;99.90;;;;;;5035431;28;20022;-75
2022/05/03 10:02:24;;;;;;;5.97;3.15;;;11.90;99.90;;;;;;5035019;28;20041;-74
2022/05/03 10:04:52;;;;;;;11.88;2.33;;;12.10;99.90;;;;;;5035237;28;20079;-74
2022/05/03 10:07:23;;;;;;;6.65;2.38;;;12.20;99.90;;;;;;5039651;28;20889;-74
2022/05/03 10:09:49;;;;;;;13.18;2.20;;;12.30;99.90;;;;;;5030486;28;20014;-73
2022/05/03 10:12:16;;;;;;;7.78;2.78;;;12.30;99.90;;;;;;5032108;28;20046;-74
2022/05/03 10:14:43;;;;;;;11.45;2.65;;;12.40;99.90;;;;;;5041114;28;20033;-73
2022/05/03 10:20:36;;;;;;;8.68;2.50;;;12.60;99.90;;;;;;5033503;28;20048;-73
2022/05/03 10:23:01;;;;;;;4.63;2.55;;;12.70;99.90;;;;;;5031391;28;20037;-73
2022/05/03 10:25:41;;;;;;;3.05;1.67;;;12.90;99.90;;;;;;5034034;28;20029;-76
2022/05/03 10:28:08;;;;;;;14.23;3.22;;;13.10;99.90;;;;;;5034528;28;20485;-72
2022/05/03 10:30:38;;;;;;;9.23;2.58;;;13.20;99.90;;;;;;5034291;28;20066;-71
2022/05/03 10:33:19;;;;;;;11.25;2.63;;;13.00;99.90;;;;;;5034508;28;20117;-74
2022/05/03 10:35:46;;;;;;;6.22;2.03;;;13.10;99.90;;;;;;5034437;28;20030;-73
2022/05/03 10:38:12;;;;;;;8.35;1.80;;;13.10;99.90;;;;;;5034524;28;20061;-73
2022/05/03 10:40:48;;;;;;;2.58;1.95;;;13.20;99.90;;;;;;5033110;28;20026;-75
2022/05/03 10:43:27;;;;;;;6.72;2.65;;;13.20;99.90;;;;;;5034363;28;20056;-74
2022/05/03 10:45:58;;;;;;;5.45;2.45;;;13.20;99.90;;;;;;5034945;28;20466;-73
2022/05/03 10:48:26;;;;;;;7.85;2.65;;;13.40;99.90;;;;;;5041400;28;20018;-75
2022/05/03 10:51:00;;;;;;;5.20;2.15;;;13.50;99.90;;;;;;5033341;28;20110;-74
2022/05/03 10:53:28;;;;;;;8.73;2.43;;;13.60;99.90;;;;;;5034371;28;20025;-75
2022/05/03 10:56:18;;;;;;;7.20;2.22;;;13.70;99.90;;;;;;5032375;28;20022;-73
2022/05/03 10:59:03;;;;;;;8.32;2.22;;;13.70;99.90;;;;;;5033665;28;20026;-74
2022/05/03 11:01:29;;;;;;;5.93;2.42;;;13.60;99.90;;;;;;5034228;28;20014;-74
2022/05/03 11:03:59;;;;;;;6.20;2.83;;;13.60;99.90;;;;;;5033782;28;20117;-73
2022/05/03 11:06:25;;;;;;;8.10;1.70;;;13.70;99.90;;;;;;5032834;28;20088;-73
2022/05/03 11:09:04;;;;;;;12.75;1.85;;;13.60;99.90;;;;;;5033854;28;20041;-74
2022/05/03 11:11:42;;;;;;;3.38;1.77;;;13.50;99.90;;;;;;5033625;28;20033;-72
2022/05/03 11:14:37;;;;;;;11.73;2.42;;;13.40;99.90;;;;;;5032798;28;20054;-71
2022/05/03 11:17:05;;;;;;;;;;;13.30;99.90;;;;;;5033937;28;20030;-72
2022/05/03 11:19:51;;;;;;;4.95;1.73;;;13.30;99.90;;;;;;5033399;28;19985;-73
2022/05/03 11:22:30;;;;;;;4.57;1.67;;;13.40;99.90;;;;;;5040435;28;20092;-71
2022/05/03 11:24:57;;;;;;;3.83;1.55;;;13.50;99.90;;;;;;5033485;28;20041;-71
2022/05/03 11:27:24;;;;;;;3.35;1.60;;;13.60;99.90;;;;;;5033584;28;20036;-73
2022/05/03 11:29:59;;;;;;;2.78;1.33;;;13.70;99.90;;;;;;5039413;28;20029;-72
2022/05/03 11:32:38;;;;;;;2.65;1.27;;;13.90;99.90;;;;;;5031736;28;20056;-72
2022/05/03 11:35:08;;;;;;;5.93;1.80;;;14.10;99.90;;;;;;5048262;28;20030;-72
2022/05/03 11:37:35;;;;;;;2.72;1.20;;;14.30;99.90;;;;;;5032965;28;20389;-71
2022/05/03 11:40:08;;;;;;;7.57;1.52;;;14.30;99.90;;;;;;5031964;28;20025;-71
2022/05/03 11:42:36;;;;;;;5.20;2.13;;;14.30;99.90;;;;;;5047981;28;20030;-75
2022/05/03 11:45:03;;;;;;;3.90;1.90;;;14.30;99.90;;;;;;5032638;28;20032;-73
2022/05/03 11:47:29;;;;;;;4.45;1.60;;;14.30;99.90;;;;;;5031974;28;20056;-73
2022/05/03 11:49:56;;;;;;;2.55;1.17;;;14.40;99.90;;;;;;5033566;28;20079;-72
2022/05/03 11:57:56;;;;;;;6.22;1.08;;;14.50;99.90;;;;;;5032989;28;20092;-73
2022/05/03 12:00:22;;;;;;;4.22;1.77;;;14.60;99.90;;;;;;5033142;28;20040;-76
2022/05/03 12:02:51;;;;;;;3.58;1.38;;;14.60;99.90;;;;;;5047001;28;20038;-74
2022/05/03 12:05:19;;;;;;;2.95;1.38;;;14.80;99.90;;;;;;5032047;28;20145;-74
2022/05/03 12:07:55;;;;;;;3.03;1.55;;;15.20;99.90;;;;;;5032793;28;20741;-74
2022/05/03 12:10:35;;;;;;;2.20;1.65;;;15.30;99.90;;;;;;5031856;28;20060;-74
2022/05/03 12:13:06;;;;;;;5.05;1.52;;;15.30;99.90;;;;;;5031393;28;20057;-74
2022/05/03 12:15:33;;;;;;;2.10;1.00;;;15.20;99.90;;;;;;5032408;28;20025;-74
2022/05/03 12:18:11;;;;;;;5.85;1.30;;;15.20;99.90;;;;;;5039425;28;20398;-75
2022/05/03 12:20:55;;;;;;;15.07;2.33;;;15.40;99.90;;;;;;5031329;28;20026;-72
2022/05/03 12:23:37;;;;;;;4.85;1.60;;;15.60;99.90;;;;;;5032634;28;20037;-73
2022/05/03 12:26:21;;;;;;;9.55;1.45;;;15.70;99.90;;;;;;5032155;28;20026;-73
2022/05/03 12:28:59;;;;;;;7.35;1.58;;;15.80;99.90;;;;;;5031347;28;20053;-71
2022/05/03 12:31:35;;;;;;;4.47;1.20;;;15.80;99.90;;;;;;5030396;28;20055;-74
2022/05/03 12:34:03;;;;;;;2.75;1.35;;;15.80;99.90;;;;;;5032598;28;20038;-72
2022/05/03 12:36:33;;;;;;;5.80;1.98;;;15.60;99.90;;;;;;5032645;28;20024;-74
2022/05/03 12:39:16;;;;;;;3.97;1.63;;;15.60;99.90;;;;;;5032510;28;20026;-73
2022/05/03 12:41:43;;;;;;;8.63;1.92;;;15.40;99.90;;;;;;5031477;28;20065;-73
2022/05/03 12:44:12;;;;;;;4.03;1.67;;;15.30;99.90;;;;;;5031844;28;20048;-72
2022/05/03 12:46:39;;;;;;;3.58;1.20;;;15.20;99.90;;;;;;5034160;28;20094;-72
2022/05/03 12:49:11;;;;;;;4.15;1.65;;;15.20;99.90;;;;;;5036472;28;20017;-73
2022/05/03 12:51:45;;;;;;;2.78;1.70;;;15.10;99.90;;;;;;5036376;28;20029;-72
2022/05/03 12:54:11;;;;;;;5.55;1.45;;;15.00;99.90;;;;;;5035853;28;20025;-71
2022/05/03 12:59:24;;;;;;;5.18;1.80;;;15.10;99.90;;;;;;5036667;28;20036;-74
2022/05/03 13:01:51;;;;;;;1.67;1.00;;;15.20;99.90;;;;;;5034586;28;20461;-72
2022/05/03 13:04:17;;;;;;;5.20;1.38;;;15.40;99.90;;;;;;5036034;28;20041;-74
2022/05/03 13:06:44;;;;;;;2.67;1.17;;;15.90;99.90;;;;;;5035881;28;20129;-74
2022/05/03 13:09:10;;;;;;;3.63;1.35;;;16.30;99.90;;;;;;5035873;28;20018;-70
2022/05/03 13:11:38;;;;;;;11.13;0.93;;;16.30;99.90;;;;;;5035932;28;20025;-71
2022/05/03 13:14:05;;;;;;;1.48;1.00;;;16.20;99.90;;;;;;5035010;28;20046;-71
2022/05/03 13:16:30;;;;;;;4.72;1.67;;;15.90;99.90;;;;;;5035499;28;20052;-72
2022/05/03 13:18:56;;;;;;;6.25;1.48;;;15.70;99.90;;;;;;5036054;28;20026;-74
2022/05/03 13:21:23;;;;;;;9.38;1.80;;;15.40;99.90;;;;;;5035856;28;20036;-72
2022/05/03 13:23:48;;;;;;;5.75;1.23;;;15.10;99.90;;;;;;5035976;28;20026;-73
2022/05/03 13:26:14;;;;;;;10.45;1.55;;;14.80;99.90;;;;;;5034416;28;20018;-72
2022/05/03 13:28:40;;;;;;;1.48;1.02;;;14.80;99.90;;;;;;5034738;28;20116;-73
2022/05/03 13:31:07;;;;;;;5.90;1.67;;;14.60;99.90;;;;;;5042440;28;20026;-76
2022/05/03 13:33:32;;;;;;;4.15;1.83;;;14.50;99.90;;;;;;5034349;28;20033;-75
2022/05/03 13:41:26;;;;;;;2.03;1.08;;;15.00;99.90;;;;;;5033800;28;20182;-72
2022/05/03 13:43:52;;;;;;;2.25;1.23;;;15.10;99.90;;;;;;5035208;28;20048;-78
2022/05/03 13:46:18;;;;;;;1.58;1.27;;;15.00;99.90;;;;;;5035338;28;20034;-73
2022/05/03 13:48:44;;;;;;;8.68;1.45;;;15.00;99.90;;;;;;5032927;28;20026;-75
2022/05/03 13:51:10;;;;;;;7.88;1.70;;;15.40;99.90;;;;;;5035252;28;20030;-77